createdAt,value
2018-04-12T00:01:21.247Z,7.60
2018-04-12T00:03:48.795Z,7.50
2018-04-12T00:06:16.278Z,7.60
2018-04-12T00:08:43.737Z,7.60
2018-04-12T00:11:11.207Z,7.60
2018-04-12T00:13:38.799Z,7.60
2018-04-12T00:16:06.312Z,7.60
2018-04-12T00:18:33.769Z,7.60
2018-04-12T00:21:01.325Z,7.60
2018-04-12T00:23:28.789Z,7.60
2018-04-12T00:25:56.255Z,7.70
2018-04-12T00:28:23.782Z,7.60
2018-04-12T00:30:51.346Z,7.60
2018-04-12T00:33:18.817Z,7.70
2018-04-12T00:35:46.278Z,7.70
2018-04-12T00:38:13.823Z,7.70
2018-04-12T00:40:41.280Z,7.70
2018-04-12T00:43:08.759Z,7.70
2018-04-12T00:45:36.292Z,7.70
2018-04-12T00:48:03.855Z,7.70
2018-04-12T00:50:31.321Z,7.80
2018-04-12T00:52:58.855Z,7.80
2018-04-12T00:55:26.318Z,7.80
2018-04-12T00:57:53.892Z,7.70
2018-04-12T01:00:21.357Z,7.70
2018-04-12T01:02:48.819Z,7.80
2018-04-12T01:05:16.282Z,7.80
2018-04-12T01:07:43.751Z,7.90
2018-04-12T01:10:11.231Z,7.90
2018-04-12T01:12:38.696Z,8.00
2018-04-12T01:15:06.272Z,8.00
2018-04-12T01:17:33.730Z,8.10
2018-04-12T01:20:01.189Z,8.00
2018-04-12T01:22:28.734Z,8.00
2018-04-12T01:24:56.204Z,8.00
2018-04-12T01:27:23.735Z,7.90
2018-04-12T01:29:51.204Z,7.80
2018-04-12T01:32:18.723Z,7.80
2018-04-12T01:34:46.197Z,7.80
2018-04-12T01:37:13.667Z,7.80
2018-04-12T01:39:41.129Z,7.80
2018-04-12T01:42:08.607Z,7.70
2018-04-12T01:44:36.071Z,7.60
2018-04-12T01:47:03.645Z,7.60
2018-04-12T01:49:31.107Z,7.60
2018-04-12T02:09:16.111Z,7.50
2018-04-12T02:11:43.616Z,7.40
2018-04-12T02:14:11.087Z,7.30
2018-04-12T02:16:38.551Z,7.30
2018-04-12T02:19:06.064Z,7.10
2018-04-12T02:21:33.534Z,7.10
2018-04-12T02:24:01.090Z,7.10
2018-04-12T02:26:28.550Z,7.00
2018-04-12T02:28:56.141Z,7.00
2018-04-12T02:31:23.605Z,7.00
2018-04-12T02:33:51.062Z,6.90
2018-04-12T02:36:18.552Z,7.00
2018-04-12T02:38:46.029Z,7.10
2018-04-12T02:41:13.501Z,7.00
2018-04-12T02:43:40.969Z,6.90
2018-04-12T02:46:08.425Z,6.90
2018-04-12T02:48:35.885Z,6.80
2018-04-12T02:51:03.433Z,6.80
2018-04-12T02:53:30.908Z,6.80
2018-04-12T02:55:58.372Z,6.80
2018-04-12T02:58:25.884Z,6.70
2018-04-12T03:00:53.390Z,6.70
2018-04-12T03:03:20.855Z,6.70
2018-04-12T03:05:48.373Z,6.80
2018-04-12T03:08:15.935Z,6.90
2018-04-12T03:10:43.483Z,7.00
2018-04-12T03:13:10.951Z,7.00
2018-04-12T03:15:38.415Z,7.10
2018-04-12T03:18:05.957Z,7.10
2018-04-12T03:20:33.478Z,7.20
2018-04-12T03:23:00.973Z,7.20
2018-04-12T03:25:28.486Z,7.30
2018-04-12T03:45:13.170Z,7.40
2018-04-12T04:04:57.768Z,7.10
2018-04-12T04:07:25.358Z,7.10
2018-04-12T04:09:52.783Z,7.00
2018-04-12T04:12:20.257Z,7.00
2018-04-12T04:32:05.704Z,6.90
2018-04-12T04:51:48.976Z,6.70
2018-04-12T04:54:16.441Z,6.70
2018-04-12T04:56:43.973Z,6.70
2018-04-12T04:59:11.447Z,6.80
2018-04-12T05:01:38.908Z,6.80
2018-04-12T05:04:06.404Z,6.90
2018-04-12T05:23:50.898Z,7.50
2018-04-12T05:26:18.371Z,7.50
2018-04-12T05:28:45.864Z,7.60
2018-04-12T05:31:13.328Z,7.70
2018-04-12T05:33:40.884Z,7.80
2018-04-12T05:36:08.358Z,7.90
2018-04-12T05:38:35.827Z,7.90
2018-04-12T05:41:03.288Z,8.10
2018-04-12T05:43:30.751Z,8.10
2018-04-12T05:45:58.220Z,8.20
2018-04-12T05:48:25.820Z,8.20
2018-04-12T05:50:53.292Z,8.40
2018-04-12T05:53:20.758Z,8.40
2018-04-12T05:55:48.222Z,8.50
2018-04-12T05:58:16.489Z,8.60
2018-04-12T06:00:43.948Z,8.60
2018-04-12T06:03:11.509Z,8.80
2018-04-12T06:05:38.989Z,9.00
2018-04-12T06:08:06.467Z,9.10
2018-04-12T06:10:33.936Z,9.20
2018-04-12T06:13:01.410Z,9.40
2018-04-12T06:15:28.880Z,9.60
2018-04-12T06:17:56.350Z,9.80
2018-04-12T06:20:23.847Z,9.90
2018-04-12T06:22:51.352Z,10.20
2018-04-12T06:25:18.818Z,10.50
2018-04-12T06:27:46.364Z,10.50
2018-04-12T06:30:13.914Z,10.70
2018-04-12T06:32:41.464Z,10.80
2018-04-12T06:35:08.939Z,11.00
2018-04-12T06:37:36.497Z,11.00
2018-04-12T06:40:03.975Z,11.10
2018-04-12T06:42:31.442Z,11.20
2018-04-12T06:44:58.905Z,11.30
2018-04-12T06:47:26.402Z,11.40
2018-04-12T06:49:53.974Z,11.50
2018-04-12T06:52:21.440Z,11.70
2018-04-12T06:54:48.986Z,11.90
2018-04-12T06:57:16.533Z,12.10
2018-04-12T06:59:44.103Z,12.40
2018-04-12T07:02:11.572Z,12.60
2018-04-12T07:04:39.039Z,12.70
2018-04-12T07:07:06.567Z,12.90
2018-04-12T07:09:34.039Z,13.20
2018-04-12T07:12:01.506Z,13.50
2018-04-12T07:14:28.989Z,13.80
2018-04-12T07:16:56.452Z,14.10
2018-04-12T07:19:23.975Z,14.30
2018-04-12T07:21:51.509Z,14.60
2018-04-12T07:24:18.980Z,14.80
2018-04-12T07:26:46.441Z,14.90
2018-04-12T07:29:13.905Z,15.20
2018-04-12T07:31:41.368Z,15.80
2018-04-12T07:34:08.842Z,17.40
2018-04-12T07:36:36.309Z,19.80
2018-04-12T07:39:03.775Z,22.20
2018-04-12T07:41:31.243Z,25.00
2018-04-12T07:43:58.709Z,27.40
2018-04-12T07:46:26.206Z,28.10
2018-04-12T07:48:53.827Z,29.50
2018-04-12T07:51:21.288Z,30.50
2018-04-12T07:53:48.769Z,31.80
2018-04-12T07:56:16.241Z,32.10
2018-04-12T07:58:43.703Z,31.30
2018-04-12T08:01:11.164Z,31.70
2018-04-12T08:03:38.639Z,32.70
2018-04-12T08:06:06.113Z,32.20
2018-04-12T08:08:33.604Z,31.40
2018-04-12T08:11:01.063Z,31.00
2018-04-12T08:13:28.542Z,30.30
2018-04-12T08:15:56.024Z,30.20
2018-04-12T08:18:23.489Z,30.00
2018-04-12T08:20:50.965Z,29.70
2018-04-12T08:23:18.434Z,30.20
2018-04-12T08:25:45.910Z,30.40
2018-04-12T08:28:13.374Z,31.60
2018-04-12T08:30:40.847Z,32.60
2018-04-12T08:33:08.313Z,34.20
2018-04-12T08:35:35.794Z,34.50
2018-04-12T08:38:03.263Z,32.90
2018-04-12T08:40:30.740Z,32.10
2018-04-12T08:42:58.221Z,31.40
2018-04-12T08:45:25.698Z,31.90
2018-04-12T08:47:53.194Z,32.40
2018-04-12T08:50:20.679Z,32.00
2018-04-12T08:52:48.142Z,31.90
2018-04-12T08:55:15.617Z,29.70
2018-04-12T08:57:43.084Z,30.30
2018-04-12T09:00:10.561Z,30.10
2018-04-12T09:02:38.032Z,30.40
2018-04-12T09:05:05.518Z,30.30
2018-04-12T09:07:32.980Z,30.40
2018-04-12T09:10:00.466Z,30.40
2018-04-12T09:12:27.921Z,29.90
2018-04-12T09:14:55.401Z,29.00
2018-04-12T09:17:22.876Z,28.60
2018-04-12T09:19:50.344Z,27.80
2018-04-12T09:22:17.810Z,27.30
2018-04-12T09:24:45.278Z,27.50
2018-04-12T09:27:12.756Z,28.00
2018-04-12T09:29:40.230Z,28.00
2018-04-12T09:32:07.711Z,28.40
2018-04-12T09:34:35.175Z,28.80
2018-04-12T09:37:02.651Z,28.40
2018-04-12T09:39:30.236Z,28.30
2018-04-12T09:41:57.716Z,28.50
2018-04-12T09:44:25.193Z,28.60
2018-04-12T09:46:52.684Z,29.10
2018-04-12T09:49:20.197Z,29.80
2018-04-12T09:51:47.625Z,29.90
2018-04-12T09:54:15.090Z,29.80
2018-04-12T09:56:42.585Z,30.00
2018-04-12T09:59:10.062Z,31.00
2018-04-12T10:01:43.225Z,31.20
2018-04-12T10:04:16.741Z,30.20
2018-04-12T10:09:44.892Z,30.20
2018-04-12T10:12:12.368Z,29.70
2018-04-12T10:14:39.832Z,30.10
2018-04-12T10:17:07.313Z,30.10
2018-04-12T10:19:34.770Z,29.20
2018-04-12T10:22:02.328Z,29.60
2018-04-12T10:24:29.800Z,28.80
2018-04-12T10:26:57.293Z,30.40
2018-04-12T10:29:24.768Z,30.40
2018-04-12T10:31:52.220Z,30.40
2018-04-12T10:34:19.745Z,30.90
2018-04-12T10:36:47.233Z,30.90
2018-04-12T10:39:14.724Z,31.40
2018-04-12T10:41:42.205Z,29.40
2018-04-12T10:44:09.650Z,28.00
2018-04-12T10:46:37.108Z,26.90
2018-04-12T10:49:05.325Z,27.70
2018-04-12T10:51:32.779Z,27.70
2018-04-12T10:54:01.739Z,28.30
2018-04-12T10:56:29.193Z,28.30
2018-04-12T10:58:57.411Z,26.90
2018-04-12T11:01:24.938Z,26.90
2018-04-12T11:03:52.418Z,26.10
2018-04-12T11:06:19.899Z,26.00
2018-04-12T11:08:47.354Z,25.90
2018-04-12T11:11:14.862Z,25.40
2018-04-12T11:13:42.316Z,25.40
2018-04-12T11:16:10.537Z,24.70
2018-04-12T11:18:38.012Z,24.70
2018-04-12T11:21:05.496Z,24.10
2018-04-12T11:23:32.932Z,23.70
2018-04-12T11:26:00.495Z,23.80
2018-04-12T11:28:27.952Z,23.90
2018-04-12T11:30:55.413Z,24.20
2018-04-12T11:33:23.653Z,24.80
2018-04-12T11:35:51.104Z,24.70
2018-04-12T11:38:19.356Z,25.90
2018-04-12T11:40:46.846Z,25.90
2018-04-12T11:43:14.295Z,25.80
2018-04-12T11:45:42.511Z,25.80
2018-04-12T11:48:10.036Z,25.80
2018-04-12T11:50:37.494Z,26.40
2018-04-12T11:53:04.976Z,26.90
2018-04-12T11:55:32.456Z,26.90
2018-04-12T11:57:59.918Z,26.70
2018-04-12T12:00:27.420Z,26.60
2018-04-12T12:02:54.875Z,27.00
2018-04-12T12:05:22.333Z,27.30
2018-04-12T12:07:50.552Z,26.90
2018-04-12T12:10:18.073Z,26.90
2018-04-12T12:12:45.531Z,27.10
2018-04-12T12:15:12.982Z,27.20
2018-04-12T12:17:41.247Z,27.40
2018-04-12T12:20:08.700Z,27.40
2018-04-12T12:22:36.194Z,27.50
2018-04-12T12:25:03.676Z,27.20
2018-04-12T12:27:31.167Z,26.60
2018-04-12T12:29:58.626Z,27.00
2018-04-12T12:32:26.127Z,27.00
2018-04-12T12:34:53.584Z,26.60
2018-04-12T12:37:21.803Z,28.50
2018-04-12T12:39:49.260Z,28.50
2018-04-12T12:42:16.812Z,29.60
2018-04-12T12:44:44.307Z,30.00
2018-04-12T12:47:11.775Z,30.30
2018-04-12T12:49:39.233Z,28.70
2018-04-12T12:52:06.747Z,28.10
2018-04-12T12:54:34.231Z,27.20
2018-04-12T12:57:01.730Z,26.90
2018-04-12T12:59:29.188Z,27.10
2018-04-12T13:01:56.640Z,25.90
2018-04-12T13:04:24.185Z,25.70
2018-04-12T13:06:51.676Z,25.20
2018-04-12T13:09:19.209Z,25.20
2018-04-12T13:11:47.432Z,24.80
2018-04-12T13:14:14.947Z,24.80
2018-04-12T13:16:42.424Z,25.00
2018-04-12T13:19:09.903Z,25.00
2018-04-12T13:21:37.363Z,24.60
2018-04-12T13:24:04.821Z,24.60
2018-04-12T13:26:33.044Z,24.30
2018-04-12T13:29:00.546Z,24.30
2018-04-12T13:31:28.004Z,24.10
2018-04-12T13:33:55.524Z,24.60
2018-04-12T13:36:22.996Z,24.60
2018-04-12T13:38:50.484Z,24.50
2018-04-12T13:41:17.940Z,24.30
2018-04-12T13:43:45.456Z,24.40
2018-04-12T13:46:13.713Z,24.80
2018-04-12T13:48:41.179Z,24.80
2018-04-12T13:51:08.721Z,24.60
2018-04-12T13:53:36.205Z,24.50
2018-04-12T13:56:03.720Z,24.80
2018-04-12T13:58:31.213Z,25.10
2018-04-12T14:00:58.672Z,24.80
2018-04-12T14:03:26.895Z,24.60
2018-04-12T14:05:55.116Z,24.40
2018-04-12T14:08:22.639Z,24.40
2018-04-12T14:10:50.175Z,24.80
2018-04-12T14:13:17.572Z,25.40
2018-04-12T14:15:45.026Z,25.30
2018-04-12T14:18:13.244Z,25.30
2018-04-12T14:20:41.465Z,25.00
2018-04-12T14:23:08.932Z,25.00
2018-04-12T14:25:36.393Z,25.00
2018-04-12T14:28:05.019Z,25.20
2018-04-12T14:30:32.577Z,25.40
2018-04-12T14:33:00.260Z,25.20
2018-04-12T14:35:27.817Z,25.10
2018-04-12T14:37:55.279Z,25.00
2018-04-12T14:40:22.733Z,24.90
2018-04-12T14:42:50.988Z,25.00
2018-04-12T14:45:18.487Z,25.00
2018-04-12T14:47:45.951Z,24.70
2018-04-12T14:50:14.273Z,23.90
2018-04-12T14:52:41.733Z,23.80
2018-04-12T14:55:09.248Z,23.80
2018-04-12T14:57:36.751Z,23.50
2018-04-12T15:00:04.213Z,23.30
2018-04-12T15:02:31.673Z,23.30
2018-04-12T15:04:59.188Z,23.00
2018-04-12T15:07:26.726Z,22.80
2018-04-12T15:09:55.061Z,22.70
2018-04-12T15:12:22.520Z,22.70
2018-04-12T15:14:50.740Z,22.60
2018-04-12T15:17:18.268Z,22.50
2018-04-12T15:19:45.726Z,22.50
2018-04-12T15:22:13.178Z,22.30
2018-04-12T15:24:41.501Z,22.20
2018-04-12T15:27:08.979Z,22.20
2018-04-12T15:29:36.444Z,22.20
2018-04-12T15:32:07.151Z,22.20
2018-04-12T15:34:34.594Z,22.10
2018-04-12T15:37:02.156Z,22.20
2018-04-12T15:39:29.637Z,22.30
2018-04-12T15:41:57.135Z,22.40
2018-04-12T15:44:24.588Z,22.60
2018-04-12T15:46:52.143Z,22.70
2018-04-12T15:49:19.693Z,22.70
2018-04-12T15:51:47.149Z,22.70
2018-04-12T15:54:15.418Z,22.80
2018-04-12T15:56:42.994Z,22.70
2018-04-12T15:59:10.478Z,22.80
2018-04-12T16:01:38.061Z,22.90
2018-04-12T16:04:05.523Z,22.90
2018-04-12T16:06:32.981Z,22.90
2018-04-12T16:09:00.436Z,22.90
2018-04-12T16:11:27.890Z,22.90
2018-04-12T16:13:55.648Z,22.90
2018-04-12T16:16:23.400Z,22.90
2018-04-12T16:18:51.046Z,22.90
2018-04-12T16:21:19.272Z,22.70
2018-04-12T16:23:46.729Z,22.70
2018-04-12T16:26:14.948Z,22.60
2018-04-12T16:28:42.396Z,22.60
2018-04-12T16:31:11.373Z,22.40
2018-04-12T16:33:38.833Z,22.30
2018-04-12T16:36:06.288Z,22.20
2018-04-12T16:38:34.509Z,22.00
2018-04-12T16:41:02.738Z,22.00
2018-04-12T16:43:30.189Z,21.90
2018-04-12T16:45:57.728Z,21.80
2018-04-12T16:48:25.185Z,21.60
2018-04-12T16:50:52.652Z,21.50
2018-04-12T16:53:20.113Z,21.30
2018-04-12T16:55:47.565Z,21.20
2018-04-12T16:58:15.790Z,20.90
2018-04-12T17:00:44.107Z,20.90
2018-04-12T17:03:11.561Z,20.90
2018-04-12T17:05:39.121Z,20.80
2018-04-12T17:08:06.676Z,20.70
2018-04-12T17:10:34.184Z,20.60
2018-04-12T17:13:02.437Z,20.40
2018-04-12T17:15:29.946Z,20.40
2018-04-12T17:17:57.420Z,20.30
2018-04-12T17:20:24.941Z,20.30
2018-04-12T17:22:52.504Z,20.20
2018-04-12T17:25:20.041Z,20.00
2018-04-12T17:27:47.601Z,19.80
2018-04-12T17:30:15.084Z,19.50
2018-04-12T17:32:43.414Z,19.10
2018-04-12T17:35:11.676Z,18.70
2018-04-12T17:37:39.164Z,18.70
2018-04-12T17:40:06.704Z,18.40
2018-04-12T17:42:34.940Z,17.80
2018-04-12T17:45:03.261Z,17.70
2018-04-12T17:47:30.733Z,17.70
2018-04-12T17:49:58.212Z,17.40
2018-04-12T17:52:25.758Z,17.30
2018-04-12T17:54:53.241Z,17.20
2018-04-12T17:57:20.720Z,17.10
2018-04-12T17:59:48.217Z,17.00
2018-04-12T18:02:15.672Z,16.90
2018-04-12T18:04:43.139Z,16.80
2018-04-12T18:07:11.792Z,16.60
2018-04-12T18:09:39.262Z,16.60
2018-04-12T18:12:06.762Z,16.50
2018-04-12T18:14:34.240Z,16.50
2018-04-12T18:17:01.702Z,16.50
2018-04-12T18:19:29.932Z,16.40
2018-04-12T18:21:57.473Z,16.40
2018-04-12T18:24:25.711Z,16.20
2018-04-12T18:26:53.172Z,16.20
2018-04-12T18:29:20.620Z,16.20
2018-04-12T18:34:23.021Z,16.00
2018-04-12T18:36:50.573Z,16.00
2018-04-12T18:39:18.161Z,16.00
2018-04-12T18:41:45.625Z,16.00
2018-04-12T18:44:13.121Z,16.10
2018-04-12T18:46:40.840Z,15.90
2018-04-12T18:49:08.341Z,15.80
2018-04-12T18:51:35.805Z,15.90
2018-04-12T18:54:03.265Z,15.90
2018-04-12T18:56:30.724Z,15.80
2018-04-12T18:58:58.188Z,15.70
2018-04-12T19:01:26.433Z,15.50
2018-04-12T19:03:53.882Z,15.50
2018-04-12T19:06:21.453Z,15.40
2018-04-12T19:08:48.872Z,15.40
2018-04-12T19:11:17.061Z,15.30
2018-04-12T19:13:44.637Z,15.20
2018-04-12T19:16:12.942Z,15.10
2018-04-12T19:18:41.467Z,15.00
2018-04-12T19:21:09.950Z,15.00
2018-04-12T19:23:37.595Z,14.90
2018-04-12T19:26:05.266Z,14.80
2018-04-12T19:28:32.901Z,14.70
2018-04-12T19:31:01.324Z,14.50
2018-04-12T19:33:29.577Z,14.50
2018-04-12T19:35:57.045Z,14.40
2018-04-12T19:38:24.513Z,14.40
2018-04-12T19:40:51.969Z,14.40
2018-04-12T19:43:20.276Z,14.30
2018-04-12T19:45:48.494Z,14.00
2018-04-12T19:48:15.948Z,14.00
2018-04-12T19:50:43.404Z,13.90
2018-04-12T19:53:10.854Z,13.80
2018-04-12T19:55:39.077Z,13.70
2018-04-12T19:58:06.541Z,13.70
2018-04-12T20:00:34.759Z,13.60
2018-04-12T20:03:02.227Z,13.60
2018-04-12T20:05:30.470Z,13.40
2018-04-12T20:07:57.931Z,13.40
2018-04-12T20:10:25.401Z,13.40
2018-04-12T20:12:53.625Z,13.30
2018-04-12T20:15:21.132Z,13.30
2018-04-12T20:17:48.590Z,13.30
2018-04-12T20:20:16.047Z,13.30
2018-04-12T20:22:44.313Z,13.20
2018-04-12T20:25:11.770Z,13.10
2018-04-12T20:27:39.279Z,13.10
2018-04-12T20:30:06.859Z,13.00
2018-04-12T20:32:34.341Z,13.00
2018-04-12T20:35:01.799Z,12.90
2018-04-12T20:37:29.300Z,12.80
2018-04-12T20:39:56.768Z,12.80
2018-04-12T20:42:24.225Z,12.70
2018-04-12T20:44:52.472Z,12.70
2018-04-12T20:47:19.956Z,12.60
2018-04-12T20:49:47.444Z,12.60
2018-04-12T20:52:14.900Z,12.70
2018-04-12T20:54:42.363Z,12.70
2018-04-12T20:57:10.614Z,12.50
2018-04-12T20:59:38.094Z,12.50
2018-04-12T21:02:05.553Z,12.50
2018-04-12T21:04:33.052Z,12.50
2018-04-12T21:07:00.508Z,12.50
2018-04-12T21:09:28.740Z,12.50
2018-04-12T21:11:56.200Z,12.40
2018-04-12T21:14:23.671Z,12.30
2018-04-12T21:16:51.895Z,12.10
2018-04-12T21:19:19.367Z,12.10
2018-04-12T21:21:46.882Z,12.00
2018-04-12T21:24:14.340Z,11.90
2018-04-12T21:26:41.849Z,11.80
2018-04-12T21:29:09.317Z,11.70
2018-04-12T21:31:36.775Z,11.70
2018-04-12T21:34:05.008Z,11.50
2018-04-12T21:36:32.504Z,11.50
2018-04-12T21:38:59.984Z,11.50
2018-04-12T21:41:27.469Z,11.50
2018-04-12T21:43:54.969Z,11.60
2018-04-12T21:46:22.427Z,11.50
2018-04-12T21:48:49.889Z,11.40
2018-04-12T21:51:18.124Z,11.40
2018-04-12T21:53:45.584Z,11.40
2018-04-12T21:56:13.090Z,11.30
2018-04-12T21:58:40.542Z,11.30
2018-04-12T22:01:08.028Z,11.20
2018-04-12T22:03:35.479Z,11.30
2018-04-12T22:06:03.025Z,11.30
2018-04-12T22:08:30.504Z,11.40
2018-04-12T22:10:58.002Z,11.30
2018-04-12T22:13:25.487Z,11.10
2018-04-12T22:15:52.939Z,11.20
2018-04-12T22:18:20.438Z,11.20
2018-04-12T22:20:47.905Z,11.10
2018-04-12T22:23:16.171Z,11.00
2018-04-12T22:25:43.660Z,11.00
2018-04-12T22:28:11.124Z,10.90
2018-04-12T22:30:38.600Z,10.90
2018-04-12T22:33:06.052Z,10.90
2018-04-12T22:35:33.564Z,10.90
2018-04-12T22:38:01.058Z,10.90
2018-04-12T22:40:28.503Z,10.90
2018-04-12T22:42:56.031Z,10.90
2018-04-12T22:45:24.252Z,10.90
2018-04-12T22:47:51.713Z,10.80
2018-04-12T22:50:19.179Z,10.90
2018-04-12T22:52:46.676Z,10.90
2018-04-12T22:55:14.168Z,10.90
2018-04-12T22:57:41.625Z,10.90
2018-04-12T23:00:09.141Z,10.90
2018-04-12T23:02:36.618Z,10.80
2018-04-12T23:05:04.103Z,10.80
2018-04-12T23:07:31.568Z,10.80
2018-04-12T23:09:59.070Z,10.70
2018-04-12T23:12:26.528Z,10.70
2018-04-12T23:14:54.033Z,10.60
2018-04-12T23:17:21.503Z,10.70
2018-04-12T23:19:48.961Z,10.70
2018-04-12T23:22:16.478Z,10.60
2018-04-12T23:24:43.942Z,10.50
2018-04-12T23:27:11.392Z,10.60
2018-04-12T23:29:39.672Z,10.50
2018-04-12T23:32:07.892Z,10.50
2018-04-12T23:34:35.353Z,10.40
2018-04-12T23:37:02.812Z,10.40
2018-04-12T23:39:30.327Z,10.50
2018-04-12T23:41:57.777Z,10.40
2018-04-12T23:44:25.233Z,10.40
2018-04-12T23:46:53.485Z,10.30
2018-04-12T23:49:20.950Z,10.30
2018-04-12T23:51:48.407Z,10.20
2018-04-12T23:54:15.872Z,10.20
2018-04-12T23:56:43.329Z,10.20
2018-04-12T23:59:10.787Z,10.20
